createdAt,value
2023-03-13T00:01:15.578Z,100006.53
2023-03-13T00:03:42.342Z,100013.69
2023-03-13T00:06:09.123Z,100007.56
2023-03-13T00:08:35.598Z,100006.25
2023-03-13T00:11:06.882Z,100008.06
2023-03-13T00:13:34.007Z,100008.75
2023-03-13T00:16:06.274Z,100000.81
2023-03-13T00:18:33.030Z,100001.16
2023-03-13T00:21:09.902Z,99989.50
2023-03-13T00:23:37.992Z,99988.03
2023-03-13T00:26:13.612Z,99987.00
2023-03-13T00:28:41.684Z,99993.56
2023-03-13T00:31:12.314Z,99982.75
2023-03-13T00:33:40.926Z,99990.19
2023-03-13T00:36:30.698Z,99979.34
2023-03-13T00:38:57.905Z,99975.88
2023-03-13T00:41:27.142Z,99976.22
2023-03-13T00:43:54.121Z,99974.56
2023-03-13T00:46:23.692Z,99973.38
2023-03-13T00:48:50.608Z,99978.63
2023-03-13T00:51:19.613Z,99961.50
2023-03-13T00:53:46.914Z,99962.50
2023-03-13T00:56:15.425Z,99962.50
2023-03-13T00:58:43.638Z,99961.56
2023-03-13T01:01:19.235Z,99956.91
2023-03-13T01:03:48.756Z,99957.66
2023-03-13T01:06:17.668Z,99947.59
2023-03-13T01:08:45.359Z,99948.88
2023-03-13T01:11:15.181Z,99946.06
2023-03-13T01:13:41.881Z,99938.97
2023-03-13T01:16:14.279Z,99942.31
2023-03-13T01:18:44.315Z,99941.94
2023-03-13T01:21:11.677Z,99935.09
2023-03-13T01:23:38.158Z,99936.53
2023-03-13T01:26:06.273Z,99940.88
2023-03-13T01:28:33.681Z,99946.91
2023-03-13T01:31:01.363Z,99952.31
2023-03-13T01:33:27.852Z,99941.13
2023-03-13T01:36:01.801Z,99938.56
2023-03-13T01:38:28.298Z,99935.09
2023-03-13T01:40:55.198Z,99933.50
2023-03-13T01:43:27.732Z,99938.91
2023-03-13T01:46:18.403Z,99944.47
2023-03-13T01:48:53.508Z,99938.75
2023-03-13T01:51:25.916Z,99932.63
2023-03-13T01:54:12.211Z,99925.63
2023-03-13T01:57:07.697Z,99908.53
2023-03-13T01:59:41.922Z,99917.69
2023-03-13T02:02:09.148Z,99915.03
2023-03-13T02:04:39.758Z,99914.53
2023-03-13T02:07:20.280Z,99897.63
2023-03-13T02:09:52.102Z,99900.06
2023-03-13T02:12:26.274Z,99890.88
2023-03-13T02:14:53.648Z,99898.38
2023-03-13T02:17:20.321Z,99887.53
2023-03-13T02:19:52.048Z,99881.91
2023-03-13T02:22:28.895Z,99880.34
2023-03-13T02:25:04.127Z,99879.91
2023-03-13T02:27:30.724Z,99878.19
2023-03-13T02:29:58.250Z,99876.53
2023-03-13T02:32:26.814Z,99876.53
2023-03-13T02:34:58.343Z,99875.72
2023-03-13T02:37:28.618Z,99869.75
2023-03-13T02:39:57.265Z,99866.53
2023-03-13T02:42:24.692Z,99867.25
2023-03-13T02:44:52.155Z,99858.91
2023-03-13T02:47:24.504Z,99853.75
2023-03-13T02:49:51.129Z,99857.66
2023-03-13T02:52:26.188Z,99851.28
2023-03-13T02:55:06.650Z,99844.41
2023-03-13T02:57:33.987Z,99842.97
2023-03-13T03:00:00.461Z,99835.38
2023-03-13T03:02:26.922Z,99831.22
2023-03-13T03:04:53.392Z,99828.31
2023-03-13T03:07:19.797Z,99819.44
2023-03-13T03:09:46.220Z,99813.00
2023-03-13T03:12:12.699Z,99813.81
2023-03-13T03:14:39.460Z,99808.56
2023-03-13T03:17:06.001Z,99803.41
2023-03-13T03:19:32.442Z,99808.00
2023-03-13T03:21:58.874Z,99805.75
2023-03-13T03:24:25.415Z,99805.50
2023-03-13T03:26:51.846Z,99803.00
2023-03-13T03:29:19.026Z,99804.13
2023-03-13T03:31:45.573Z,99805.53
2023-03-13T03:34:12.177Z,99798.97
2023-03-13T03:36:39.917Z,99793.28
2023-03-13T03:39:06.424Z,99789.63
2023-03-13T03:41:32.917Z,99801.63
2023-03-13T03:43:59.450Z,99779.44
2023-03-13T03:46:25.966Z,99785.16
2023-03-13T03:48:52.447Z,99773.72
2023-03-13T03:51:18.888Z,99770.53
2023-03-13T03:53:45.301Z,99765.25
2023-03-13T03:56:11.798Z,99762.31
2023-03-13T03:58:38.295Z,99760.94
2023-03-13T04:01:05.125Z,99767.34
2023-03-13T04:03:32.005Z,99754.06
2023-03-13T04:05:58.485Z,99752.25
2023-03-13T04:08:25.232Z,99752.09
2023-03-13T04:10:52.192Z,99748.91
2023-03-13T04:13:18.695Z,99743.34
2023-03-13T04:15:45.409Z,99743.63
2023-03-13T04:18:11.915Z,99737.75
2023-03-13T04:20:38.353Z,99725.91
2023-03-13T04:23:04.909Z,99729.69
2023-03-13T04:25:31.490Z,99722.00
2023-03-13T04:27:57.952Z,99712.34
2023-03-13T04:30:24.396Z,99702.59
2023-03-13T04:32:51.201Z,99707.47
2023-03-13T04:35:17.794Z,99699.53
2023-03-13T04:37:44.273Z,99692.56
2023-03-13T04:40:12.641Z,99692.00
2023-03-13T04:42:40.318Z,99688.09
2023-03-13T04:45:08.063Z,99683.34
2023-03-13T04:47:34.524Z,99687.00
2023-03-13T04:50:00.922Z,99678.47
2023-03-13T04:52:27.380Z,99677.06
2023-03-13T04:54:53.856Z,99667.28
2023-03-13T04:57:20.268Z,99667.28
2023-03-13T04:59:46.848Z,99659.47
2023-03-13T05:02:14.001Z,99653.75
2023-03-13T05:04:40.567Z,99650.16
2023-03-13T05:07:07.180Z,99644.84
2023-03-13T05:09:33.641Z,99638.44
2023-03-13T05:12:00.179Z,99632.16
2023-03-13T05:14:26.701Z,99614.16
2023-03-13T05:16:53.137Z,99617.63
2023-03-13T05:19:19.700Z,99611.78
2023-03-13T05:21:46.118Z,99607.56
2023-03-13T05:24:12.571Z,99612.44
2023-03-13T05:26:39.093Z,99608.00
2023-03-13T05:29:05.544Z,99613.72
2023-03-13T05:31:32.082Z,99596.25
2023-03-13T05:33:58.616Z,99594.75
2023-03-13T05:36:25.088Z,99587.47
2023-03-13T05:38:51.700Z,99578.97
2023-03-13T05:41:18.183Z,99576.59
2023-03-13T05:43:44.636Z,99567.53
2023-03-13T05:46:11.126Z,99563.31
2023-03-13T05:48:37.650Z,99557.03
2023-03-13T05:51:04.340Z,99547.72
2023-03-13T05:53:30.776Z,99544.78
2023-03-13T05:55:57.284Z,99542.69
2023-03-13T05:58:23.989Z,99540.03
2023-03-13T06:00:50.442Z,99537.25
2023-03-13T06:03:17.117Z,99534.00
2023-03-13T06:05:43.549Z,99525.94
2023-03-13T06:08:10.062Z,99521.47
2023-03-13T06:10:36.557Z,99529.03
2023-03-13T06:13:13.905Z,99523.53
2023-03-13T06:15:52.852Z,99521.16
2023-03-13T06:18:19.327Z,99519.19
2023-03-13T06:20:45.894Z,99512.84
2023-03-13T06:23:12.395Z,99502.69
2023-03-13T06:25:38.946Z,99500.19
2023-03-13T06:28:05.383Z,99499.38
2023-03-13T06:30:31.902Z,99490.25
2023-03-13T06:32:58.871Z,99480.47
2023-03-13T06:35:25.629Z,99469.19
2023-03-13T06:37:52.151Z,99460.66
2023-03-13T06:40:18.737Z,99466.69
2023-03-13T06:42:45.148Z,99452.16
2023-03-13T06:45:11.756Z,99451.31
2023-03-13T06:47:38.233Z,99439.47
2023-03-13T06:50:05.016Z,99431.78
2023-03-13T06:52:43.016Z,99426.44
2023-03-13T06:55:10.825Z,99420.91
2023-03-13T06:57:37.435Z,99414.72
2023-03-13T07:00:06.100Z,99412.06
2023-03-13T07:02:32.745Z,99411.84
2023-03-13T07:04:59.287Z,99418.06
2023-03-13T07:07:31.718Z,99407.28
2023-03-13T07:09:59.017Z,99405.63
2023-03-13T07:12:25.605Z,99421.94
2023-03-13T07:14:52.168Z,99415.34
2023-03-13T07:17:18.706Z,99416.41
2023-03-13T07:19:48.397Z,99411.59
2023-03-13T07:22:15.026Z,99408.53
2023-03-13T07:24:42.538Z,99399.16
2023-03-13T07:27:09.413Z,99384.28
2023-03-13T07:29:36.088Z,99386.94
2023-03-13T07:32:02.801Z,99385.66
2023-03-13T07:34:29.897Z,99392.38
2023-03-13T07:36:56.638Z,99385.41
2023-03-13T07:39:23.642Z,99375.75
2023-03-13T07:41:50.569Z,99380.88
2023-03-13T07:44:17.305Z,99378.69
2023-03-13T07:46:44.316Z,99367.25
2023-03-13T07:49:12.204Z,99361.09
2023-03-13T07:51:43.829Z,99361.47
2023-03-13T07:54:11.660Z,99348.19
2023-03-13T07:56:38.772Z,99343.13
2023-03-13T07:59:05.526Z,99357.06
2023-03-13T08:01:39.954Z,99341.06
2023-03-13T08:04:06.507Z,99340.19
2023-03-13T08:06:35.780Z,99336.81
2023-03-13T08:09:02.714Z,99336.13
2023-03-13T08:11:29.957Z,99337.38
2023-03-13T08:13:57.645Z,99328.50
2023-03-13T08:16:27.278Z,99312.59
2023-03-13T08:18:58.689Z,99318.94
2023-03-13T08:21:30.369Z,99315.91
2023-03-13T08:24:01.487Z,99317.03
2023-03-13T08:26:30.386Z,99302.50
2023-03-13T08:28:59.442Z,99298.00
2023-03-13T08:31:31.410Z,99287.41
2023-03-13T08:33:58.476Z,99294.06
2023-03-13T08:36:43.163Z,99286.31
2023-03-13T08:39:13.982Z,99285.56
2023-03-13T08:41:41.589Z,99280.63
2023-03-13T08:44:11.344Z,99284.31
2023-03-13T08:46:38.354Z,99281.06
2023-03-13T08:49:07.271Z,99264.16
2023-03-13T08:51:34.462Z,99265.03
2023-03-13T08:54:02.353Z,99277.09
2023-03-13T08:56:30.584Z,99266.59
2023-03-13T08:58:59.906Z,99252.72
2023-03-13T09:01:29.761Z,99255.22
2023-03-13T09:03:57.857Z,99253.84
2023-03-13T09:06:24.661Z,99253.94
2023-03-13T09:08:51.178Z,99241.34
2023-03-13T09:11:20.987Z,99233.19
2023-03-13T09:13:50.497Z,99231.88
2023-03-13T09:16:20.216Z,99230.19
2023-03-13T09:18:47.159Z,99231.91
2023-03-13T09:21:18.381Z,99242.91
2023-03-13T09:23:45.323Z,99245.09
2023-03-13T09:26:15.067Z,99239.97
2023-03-13T09:28:45.910Z,99231.81
2023-03-13T09:31:15.445Z,99232.50
2023-03-13T09:33:43.413Z,99245.44
2023-03-13T09:36:10.938Z,99241.44
2023-03-13T09:38:38.316Z,99238.53
2023-03-13T09:41:20.018Z,99229.53
2023-03-13T09:43:55.375Z,99227.72
2023-03-13T09:46:48.381Z,99231.56
2023-03-13T09:49:51.310Z,99210.63
2023-03-13T09:52:49.913Z,99214.97
2023-03-13T09:55:34.735Z,99207.34
2023-03-13T09:58:13.594Z,99204.03
2023-03-13T10:00:43.187Z,99217.34
2023-03-13T10:03:26.396Z,99212.50
2023-03-13T10:05:57.376Z,99214.19
2023-03-13T10:08:26.548Z,99219.66
2023-03-13T10:11:02.099Z,99212.53
2023-03-13T10:13:56.883Z,99208.19
2023-03-13T10:16:38.951Z,99209.38
2023-03-13T10:19:14.441Z,99205.56
2023-03-13T10:21:43.426Z,99215.06
2023-03-13T10:24:34.927Z,99206.25
2023-03-13T10:27:01.550Z,99206.91
2023-03-13T10:29:30.669Z,99201.22
2023-03-13T10:32:05.803Z,99199.22
2023-03-13T10:34:52.644Z,99187.06
2023-03-13T10:37:30.020Z,99202.38
2023-03-13T10:40:23.197Z,99184.41
2023-03-13T10:42:52.093Z,99175.59
2023-03-13T10:45:25.256Z,99177.72
2023-03-13T10:47:56.860Z,99169.06
2023-03-13T10:50:26.543Z,99175.22
2023-03-13T10:52:54.856Z,99166.34
2023-03-13T10:55:24.512Z,99168.13
2023-03-13T10:58:05.762Z,99171.91
2023-03-13T11:00:42.576Z,99168.34
2023-03-13T11:03:20.006Z,99162.75
2023-03-13T11:05:58.556Z,99164.41
2023-03-13T11:08:27.663Z,99157.59
2023-03-13T11:10:57.630Z,99160.34
2023-03-13T11:13:38.260Z,99147.88
2023-03-13T11:16:19.456Z,99144.34
2023-03-13T11:19:02.337Z,99139.06
2023-03-13T11:21:39.470Z,99142.63
2023-03-13T11:24:16.215Z,99124.69
2023-03-13T11:27:04.275Z,99127.81
2023-03-13T11:29:48.547Z,99121.66
2023-03-13T11:32:24.696Z,99124.34
2023-03-13T11:34:57.253Z,99121.09
2023-03-13T11:37:26.824Z,99136.22
2023-03-13T11:39:56.747Z,99120.00
2023-03-13T11:42:39.496Z,99120.00
2023-03-13T11:45:46.792Z,99122.06
2023-03-13T11:48:25.640Z,99110.06
2023-03-13T11:51:01.139Z,99117.81
2023-03-13T11:53:40.856Z,99123.25
2023-03-13T11:56:35.607Z,99115.84
2023-03-13T11:59:07.867Z,99112.81
2023-03-13T12:01:46.607Z,99118.25
2023-03-13T12:04:29.042Z,99115.22
2023-03-13T12:06:59.150Z,99115.41
2023-03-13T12:09:28.580Z,99121.47
2023-03-13T12:12:03.670Z,99115.84
2023-03-13T12:14:53.064Z,99100.06
2023-03-13T12:17:35.065Z,99107.78
2023-03-13T12:20:24.092Z,99102.50
2023-03-13T12:23:20.525Z,99108.28
2023-03-13T12:26:04.838Z,99099.03
2023-03-13T12:28:52.687Z,99104.84
2023-03-13T12:31:28.898Z,99095.63
2023-03-13T12:34:09.764Z,99097.56
2023-03-13T12:36:42.892Z,99091.97
2023-03-13T12:39:24.461Z,99086.50
2023-03-13T12:42:12.018Z,99082.09
2023-03-13T12:44:39.976Z,99082.75
2023-03-13T12:47:34.227Z,99085.88
2023-03-13T12:50:19.805Z,99071.88
2023-03-13T12:52:46.223Z,99058.75
2023-03-13T12:55:40.148Z,99071.78
2023-03-13T12:58:22.939Z,99064.72
2023-03-13T13:00:51.010Z,99056.75
2023-03-13T13:03:35.713Z,99054.25
2023-03-13T13:06:04.920Z,99036.44
2023-03-13T13:08:36.170Z,99047.31
2023-03-13T13:11:33.840Z,99048.31
2023-03-13T13:14:25.893Z,99043.13
2023-03-13T13:17:21.273Z,99031.19
2023-03-13T13:19:48.038Z,99048.03
2023-03-13T13:22:38.811Z,99041.41
2023-03-13T13:25:11.693Z,99045.31
2023-03-13T13:27:38.079Z,99033.13
2023-03-13T13:30:27.652Z,99020.75
2023-03-13T13:32:55.768Z,99031.09
2023-03-13T13:35:30.216Z,99027.31
2023-03-13T13:38:18.489Z,99023.03
2023-03-13T13:41:14.376Z,99024.88
2023-03-13T13:43:40.738Z,99027.34
2023-03-13T13:46:31.421Z,99023.84
2023-03-13T13:49:07.476Z,99020.94
2023-03-13T13:51:38.602Z,99019.91
2023-03-13T13:54:30.032Z,99015.78
2023-03-13T13:56:59.190Z,99010.00
2023-03-13T13:59:31.679Z,99029.41
2023-03-13T14:02:04.150Z,99025.72
2023-03-13T14:04:55.992Z,99016.84
2023-03-13T14:07:37.203Z,99012.50
2023-03-13T14:10:19.519Z,99010.84
2023-03-13T14:12:57.905Z,99010.63
2023-03-13T14:15:34.598Z,99017.03
2023-03-13T14:18:16.302Z,99014.56
2023-03-13T14:20:58.984Z,99014.53
2023-03-13T14:23:31.120Z,99009.41
2023-03-13T14:25:57.649Z,99011.69
2023-03-13T14:28:27.540Z,99002.59
2023-03-13T14:30:57.018Z,99014.78
2023-03-13T14:33:26.762Z,99022.19
2023-03-13T14:35:54.073Z,99009.63
2023-03-13T14:38:26.309Z,99001.16
2023-03-13T14:40:55.389Z,99001.75
2023-03-13T14:43:24.922Z,99003.22
2023-03-13T14:45:51.915Z,99012.88
2023-03-13T14:48:32.394Z,99010.44
2023-03-13T14:51:20.006Z,99003.81
2023-03-13T14:54:00.814Z,98991.63
2023-03-13T14:56:43.020Z,98989.34
2023-03-13T14:59:24.271Z,99002.16
2023-03-13T15:02:23.154Z,98975.94
2023-03-13T15:04:59.833Z,98977.00
2023-03-13T15:07:41.782Z,98971.41
2023-03-13T15:10:26.819Z,98967.50
2023-03-13T15:12:53.419Z,98971.41
2023-03-13T15:15:20.057Z,98970.38
2023-03-13T15:17:46.649Z,98966.22
2023-03-13T15:20:14.569Z,98964.00
2023-03-13T15:22:44.270Z,98963.53
2023-03-13T15:25:23.149Z,98960.88
2023-03-13T15:27:50.583Z,98937.34
2023-03-13T15:30:19.630Z,98944.75
2023-03-13T15:32:47.022Z,98950.34
2023-03-13T15:35:22.036Z,98948.72
2023-03-13T15:37:48.518Z,98947.47
2023-03-13T15:40:16.817Z,98932.78
2023-03-13T15:42:43.399Z,98931.16
2023-03-13T15:45:10.224Z,98930.56
2023-03-13T15:47:36.727Z,98930.13
2023-03-13T15:50:04.403Z,98928.69
2023-03-13T15:52:31.486Z,98922.91
2023-03-13T15:54:57.922Z,98914.63
2023-03-13T15:57:26.258Z,98904.72
2023-03-13T15:59:54.126Z,98914.88
2023-03-13T16:02:23.181Z,98893.59
2023-03-13T16:04:50.964Z,98901.44
2023-03-13T16:07:21.552Z,98918.97
2023-03-13T16:09:49.003Z,98913.81
2023-03-13T16:12:15.428Z,98907.63
2023-03-13T16:14:42.230Z,98882.44
2023-03-13T16:17:17.170Z,98875.84
2023-03-13T16:19:44.919Z,98882.06
2023-03-13T16:22:12.045Z,98878.53
2023-03-13T16:24:39.454Z,98874.22
2023-03-13T16:27:13.869Z,98864.13
2023-03-13T16:29:40.490Z,98865.09
2023-03-13T16:32:06.973Z,98862.44
2023-03-13T16:34:33.434Z,98850.69
2023-03-13T16:36:59.946Z,98857.69
2023-03-13T16:39:26.622Z,98858.94
2023-03-13T16:41:53.161Z,98853.78
2023-03-13T16:44:19.656Z,98848.84
2023-03-13T16:46:59.215Z,98847.19
2023-03-13T16:49:31.105Z,98832.72
2023-03-13T16:51:57.554Z,98838.75
2023-03-13T16:54:24.010Z,98838.50
2023-03-13T16:56:50.536Z,98836.88
2023-03-13T16:59:18.173Z,98839.34
2023-03-13T17:01:46.972Z,98829.38
2023-03-13T17:04:13.891Z,98827.34
2023-03-13T17:06:42.607Z,98822.22
2023-03-13T17:09:15.572Z,98825.09
2023-03-13T17:11:42.623Z,98829.84
2023-03-13T17:14:09.414Z,98833.75
2023-03-13T17:16:39.604Z,98816.00
2023-03-13T17:19:08.943Z,98825.91
2023-03-13T17:21:36.678Z,98813.75
2023-03-13T17:24:03.371Z,98823.00
2023-03-13T17:26:33.554Z,98831.44
2023-03-13T17:29:00.525Z,98830.63
2023-03-13T17:31:28.334Z,98829.00
2023-03-13T17:33:54.929Z,98837.22
2023-03-13T17:36:27.242Z,98828.78
2023-03-13T17:38:59.264Z,98839.91
2023-03-13T17:41:28.239Z,98835.34
2023-03-13T17:43:55.208Z,98835.97
2023-03-13T17:46:30.831Z,98838.84
2023-03-13T17:48:57.333Z,98840.53
2023-03-13T17:51:26.770Z,98832.06
2023-03-13T17:53:55.015Z,98826.69
2023-03-13T17:56:27.172Z,98825.47
2023-03-13T17:58:57.693Z,98836.59
2023-03-13T18:01:26.452Z,98841.72
2023-03-13T18:03:53.003Z,98821.75
2023-03-13T18:06:29.458Z,98822.38
2023-03-13T18:08:58.240Z,98822.81
2023-03-13T18:11:26.436Z,98829.78
2023-03-13T18:13:53.228Z,98814.94
2023-03-13T18:16:24.711Z,98814.34
2023-03-13T18:18:52.137Z,98803.78
2023-03-13T18:21:20.195Z,98803.81
2023-03-13T18:23:46.676Z,98807.94
2023-03-13T18:26:25.263Z,98802.34
2023-03-13T18:28:52.564Z,98805.66
2023-03-13T18:31:19.178Z,98813.06
2023-03-13T18:33:47.660Z,98794.75
2023-03-13T18:36:19.564Z,98794.72
2023-03-13T18:38:47.732Z,98795.78
2023-03-13T18:41:15.538Z,98802.75
2023-03-13T18:43:43.438Z,98801.53
2023-03-13T18:46:26.589Z,98784.00
2023-03-13T18:48:53.725Z,98784.63
2023-03-13T18:51:24.210Z,98780.75
2023-03-13T18:53:52.202Z,98792.25
2023-03-13T18:56:28.024Z,98801.09
2023-03-13T18:58:55.839Z,98796.78
2023-03-13T19:01:25.094Z,98792.06
2023-03-13T19:03:52.156Z,98798.25
2023-03-13T19:06:33.871Z,98792.06
2023-03-13T19:09:42.207Z,98774.75
2023-03-13T19:12:08.350Z,98773.09
2023-03-13T19:14:34.883Z,98769.38
2023-03-13T19:17:01.653Z,98765.06
2023-03-13T19:19:28.741Z,98766.50
2023-03-13T19:21:56.273Z,98746.09
2023-03-13T19:24:26.451Z,98729.81
2023-03-13T19:26:58.340Z,98739.72
2023-03-13T19:29:27.788Z,98749.59
2023-03-13T19:31:54.877Z,98758.06
2023-03-13T19:34:21.997Z,98754.75
2023-03-13T19:36:49.361Z,98743.84
2023-03-13T19:39:24.084Z,98752.06
2023-03-13T19:41:51.617Z,98737.47
2023-03-13T19:44:19.949Z,98733.53
2023-03-13T19:46:46.836Z,98737.47
2023-03-13T19:49:16.082Z,98730.25
2023-03-13T19:51:42.980Z,98735.56
2023-03-13T19:54:10.778Z,98734.53
2023-03-13T19:56:39.331Z,98741.16
2023-03-13T19:59:24.245Z,98747.94
2023-03-13T20:01:50.837Z,98746.28
2023-03-13T20:04:17.453Z,98741.75
2023-03-13T20:06:45.381Z,98731.66
2023-03-13T20:09:17.375Z,98732.47
2023-03-13T20:11:44.575Z,98725.88
2023-03-13T20:14:11.391Z,98721.97
2023-03-13T20:16:38.628Z,98722.81
2023-03-13T20:19:05.280Z,98724.63
2023-03-13T20:21:34.665Z,98708.97
2023-03-13T20:24:01.469Z,98713.72
2023-03-13T20:26:29.301Z,98704.84
2023-03-13T20:28:56.945Z,98701.97
2023-03-13T20:31:26.270Z,98703.19
2023-03-13T20:33:52.769Z,98699.47
2023-03-13T20:36:20.709Z,98696.38
2023-03-13T20:38:47.607Z,98696.63
2023-03-13T20:41:16.121Z,98688.97
2023-03-13T20:43:42.908Z,98689.19
2023-03-13T20:46:09.642Z,98687.75
2023-03-13T20:48:39.142Z,98689.78
2023-03-13T20:51:07.547Z,98695.94
2023-03-13T20:53:38.909Z,98698.44
2023-03-13T20:56:07.271Z,98703.38
2023-03-13T20:58:37.636Z,98706.25
2023-03-13T21:01:06.336Z,98704.00
2023-03-13T21:03:35.361Z,98695.75
2023-03-13T21:06:11.961Z,98692.69
2023-03-13T21:08:39.023Z,98705.84
2023-03-13T21:11:15.585Z,98697.19
2023-03-13T21:13:42.072Z,98692.28
2023-03-13T21:16:08.836Z,98691.44
2023-03-13T21:18:35.441Z,98692.69
2023-03-13T21:21:07.044Z,98701.34
2023-03-13T21:23:33.642Z,98684.66
2023-03-13T21:26:00.601Z,98691.03
2023-03-13T21:28:28.026Z,98694.53
2023-03-13T21:30:55.207Z,98700.28
2023-03-13T21:33:21.968Z,98698.41
2023-03-13T21:35:49.734Z,98710.56
2023-03-13T21:38:16.695Z,98712.84
2023-03-13T21:40:43.323Z,98716.97
2023-03-13T21:43:09.824Z,98717.75
2023-03-13T21:45:36.539Z,98696.34
2023-03-13T21:48:03.090Z,98690.16
2023-03-13T21:50:29.628Z,98689.16
2023-03-13T21:52:56.032Z,98687.06
2023-03-13T21:55:22.475Z,98679.84
2023-03-13T21:57:48.990Z,98678.59
2023-03-13T22:00:15.991Z,98661.72
2023-03-13T22:02:44.196Z,98665.44
2023-03-13T22:05:10.889Z,98665.66
2023-03-13T22:07:37.319Z,98667.47
2023-03-13T22:10:04.567Z,98670.94
2023-03-13T22:12:31.045Z,98670.97
2023-03-13T22:14:57.915Z,98674.88
2023-03-13T22:17:24.706Z,98679.16
2023-03-13T22:19:51.220Z,98674.44
2023-03-13T22:22:19.904Z,98680.69
2023-03-13T22:24:46.645Z,98677.09
2023-03-13T22:27:13.551Z,98663.13
2023-03-13T22:29:40.029Z,98666.00
2023-03-13T22:32:06.588Z,98663.75
2023-03-13T22:34:33.127Z,98658.97
2023-03-13T22:36:59.603Z,98654.28
2023-03-13T22:39:26.090Z,98668.47
2023-03-13T22:41:52.679Z,98670.09
2023-03-13T22:44:19.403Z,98664.75
2023-03-13T22:46:45.839Z,98652.00
2023-03-13T22:49:12.298Z,98662.47
2023-03-13T22:51:38.756Z,98673.81
2023-03-13T22:54:05.323Z,98653.63
2023-03-13T22:56:31.956Z,98640.22
2023-03-13T22:58:58.456Z,98647.25
2023-03-13T23:01:26.452Z,98656.25
2023-03-13T23:03:52.977Z,98658.94
2023-03-13T23:06:23.007Z,98638.38
2023-03-13T23:08:50.512Z,98641.47
2023-03-13T23:11:18.207Z,98660.59
2023-03-13T23:13:44.911Z,98662.03
2023-03-13T23:16:12.836Z,98661.19
2023-03-13T23:18:40.199Z,98655.41
2023-03-13T23:21:12.814Z,98648.00
2023-03-13T23:23:39.909Z,98642.63
2023-03-13T23:26:09.079Z,98618.41
2023-03-13T23:28:36.953Z,98632.75
2023-03-13T23:31:15.862Z,98621.06
2023-03-13T23:33:43.310Z,98627.03
2023-03-13T23:36:13.180Z,98622.66
2023-03-13T23:38:40.409Z,98634.59
2023-03-13T23:41:08.998Z,98631.09
2023-03-13T23:43:35.811Z,98624.13
2023-03-13T23:46:02.357Z,98614.25
2023-03-13T23:48:28.919Z,98614.03
2023-03-13T23:50:55.373Z,98632.31
2023-03-13T23:53:22.144Z,98629.44
2023-03-13T23:55:57.278Z,98620.75
2023-03-13T23:58:23.901Z,98628.56
